Time;durP1;ratioP1;P1;durP2;ratioP2;P2;SDS_P1;SDS_P2;PMS_P1;PMS_P2;Temp;Humidity;BMP_temperature;BMP_pressure;BME280_temperature;BME280_humidity;BME280_pressure;Samples;Min_cycle;Max_cycle;Signal;HPM_P1;HPM_P2
2022/01/28 00:02:03;;;;;;;22.23;3.58;;;5.20;99.90;;;;;;5068594;28;20052;-78
2022/01/28 00:04:28;;;;;;;22.48;4.38;;;5.20;99.90;;;;;;5069733;28;20782;-78
2022/01/28 00:06:54;;;;;;;23.52;4.03;;;5.20;99.90;;;;;;5051550;28;20040;-77
2022/01/28 00:09:20;;;;;;;24.23;4.80;;;5.20;99.90;;;;;;5068573;28;20045;-77
2022/01/28 00:11:45;;;;;;;28.23;4.22;;;5.20;99.90;;;;;;5083217;28;20487;-78
2022/01/28 00:38:55;;;;;;;;;;;5.30;99.90;;;;;;5089955;28;20564;-78
2022/01/28 00:41:21;;;;;;;;;;;5.20;99.90;;;;;;5094230;28;19920;-78
2022/01/28 00:43:47;;;;;;;;;;;5.10;99.90;;;;;;5095123;28;19919;-78
2022/01/28 00:46:12;;;;;;;25.98;3.65;;;5.10;99.90;;;;;;5095965;28;19920;-78
2022/01/28 00:48:38;;;;;;;26.65;4.22;;;5.10;99.90;;;;;;5096334;28;20040;-78
2022/01/28 00:51:04;;;;;;;15.63;3.42;;;5.10;99.90;;;;;;5095185;28;20083;-78
2022/01/28 00:53:30;;;;;;;24.35;3.42;;;5.10;99.90;;;;;;5094932;28;20448;-77
2022/01/28 00:55:57;;;;;;;15.32;3.60;;;5.10;99.90;;;;;;5094518;28;20543;-78
2022/01/28 00:58:23;;;;;;;18.75;3.80;;;5.20;99.90;;;;;;5077970;28;20052;-78
2022/01/28 01:00:50;;;;;;;19.58;3.33;;;5.20;99.90;;;;;;5095034;28;20044;-78
2022/01/28 01:03:16;;;;;;;18.30;3.58;;;5.20;99.90;;;;;;5094614;28;20075;-78
2022/01/28 01:05:41;;;;;;;22.42;4.35;;;5.20;99.90;;;;;;5094518;28;20036;-78
2022/01/28 01:08:07;;;;;;;29.20;5.05;;;5.10;99.90;;;;;;5077703;28;20097;-78
2022/01/28 01:10:33;;;;;;;25.60;4.43;;;5.10;99.90;;;;;;5090112;28;20045;-78
2022/01/28 01:13:00;;;;;;;31.40;4.10;;;5.10;99.90;;;;;;5073670;28;20036;-78
2022/01/28 01:15:31;;;;;;;28.02;4.72;;;5.10;99.90;;;;;;5074467;28;20479;-78
2022/01/28 01:18:08;;;;;;;32.83;5.43;;;5.10;99.90;;;;;;5074463;28;20565;-78
2022/01/28 01:20:51;;;;;;;26.58;5.43;;;5.10;99.90;;;;;;5074759;28;20044;-78
2022/01/28 01:23:24;;;;;;;27.15;4.65;;;5.00;99.90;;;;;;5057672;28;20048;-78
2022/01/28 01:26:06;;;;;;;32.72;5.32;;;5.00;99.90;;;;;;5057306;28;20136;-78
2022/01/28 01:28:36;;;;;;;31.02;5.93;;;4.90;99.90;;;;;;5073612;28;20106;-78
2022/01/28 01:31:04;;;;;;;26.92;5.15;;;4.90;99.90;;;;;;5074864;28;20052;-78
2022/01/28 01:33:35;;;;;;;18.00;4.75;;;4.90;99.90;;;;;;5073258;28;20102;-78
2022/01/28 01:36:01;;;;;;;24.20;3.92;;;4.90;99.90;;;;;;5074482;28;20056;-78
2022/01/28 01:38:32;;;;;;;24.83;4.80;;;4.90;99.90;;;;;;5073347;28;20053;-78
2022/01/28 01:41:00;;;;;;;20.95;4.00;;;5.00;99.90;;;;;;5072915;28;20155;-78
2022/01/28 01:46:06;;;;;;;25.73;3.17;;;5.20;99.90;;;;;;5073046;28;20123;-78
2022/01/28 01:54:01;;;;;;;17.80;3.45;;;5.40;99.90;;;;;;5070142;28;20045;-78
2022/01/28 01:56:28;;;;;;;21.20;3.78;;;5.50;99.90;;;;;;5069986;28;20040;-78
2022/01/28 01:58:55;;;;;;;26.00;4.82;;;5.50;99.90;;;;;;5070998;28;20045;-78
2022/01/28 02:01:21;;;;;;;22.42;4.68;;;5.50;99.90;;;;;;5071361;28;20051;-78
2022/01/28 02:03:47;;;;;;;17.45;3.20;;;5.50;99.90;;;;;;5070676;28;20037;-78
2022/01/28 02:06:17;;;;;;;19.98;4.15;;;5.50;99.90;;;;;;5052794;28;20052;-78
2022/01/28 02:08:43;;;;;;;27.25;3.80;;;5.60;99.90;;;;;;5069782;28;20048;-78
2022/01/28 02:11:09;;;;;;;27.02;3.63;;;5.60;99.90;;;;;;5070901;28;20131;-78
2022/01/28 02:13:36;;;;;;;25.67;4.40;;;5.60;99.90;;;;;;5050003;28;20582;-78
2022/01/28 02:16:02;;;;;;;20.17;3.65;;;5.60;99.90;;;;;;5077599;28;20043;-78
2022/01/28 02:18:27;;;;;;;27.10;4.53;;;5.60;99.90;;;;;;5083274;28;20497;-78
2022/01/28 02:20:58;;;;;;;23.83;3.90;;;5.70;99.90;;;;;;5052942;28;20827;-78
2022/01/28 02:23:24;;;;;;;24.27;5.28;;;5.70;99.90;;;;;;5064110;28;20101;-78
2022/01/28 02:25:50;;;;;;;31.83;5.05;;;5.70;99.90;;;;;;5089360;28;20138;-78
2022/01/28 02:28:20;;;;;;;28.40;4.78;;;5.80;99.90;;;;;;5072373;28;20059;-78
2022/01/28 02:30:45;;;;;;;24.75;3.65;;;5.80;99.90;;;;;;5070914;28;20044;-78
2022/01/28 02:33:20;;;;;;;30.98;4.78;;;5.80;99.90;;;;;;5068915;28;20700;-78
2022/01/28 02:35:48;;;;;;;24.30;3.85;;;5.80;99.90;;;;;;5070402;28;20051;-77
2022/01/28 02:38:17;;;;;;;24.80;5.38;;;5.80;99.90;;;;;;5070438;28;20083;-78
2022/01/28 02:40:51;;;;;;;25.80;5.00;;;5.80;99.90;;;;;;5070881;28;20052;-78
2022/01/28 02:45:51;;;;;;;22.70;4.70;;;5.80;99.90;;;;;;5068706;28;20495;-78
2022/01/28 02:48:20;;;;;;;25.20;5.40;;;5.80;99.90;;;;;;5075726;28;20036;-78
2022/01/28 02:53:24;;;;;;;25.95;4.47;;;5.80;99.90;;;;;;5089113;28;20056;-78
2022/01/28 02:55:58;;;;;;;20.35;3.85;;;5.90;99.90;;;;;;5088688;28;20048;-78
2022/01/28 02:58:25;;;;;;;20.20;3.83;;;5.90;99.90;;;;;;5089160;28;20044;-78
2022/01/28 03:00:53;;;;;;;17.33;3.03;;;5.90;99.90;;;;;;5089870;28;20395;-78
2022/01/28 03:03:19;;;;;;;19.25;3.05;;;5.90;99.90;;;;;;5088598;28;20108;-78
2022/01/28 03:05:45;;;;;;;23.02;5.03;;;5.90;99.90;;;;;;5072184;28;20047;-78
2022/01/28 03:08:12;;;;;;;23.67;4.18;;;5.90;99.90;;;;;;5089965;28;20048;-78
2022/01/28 03:15:34;;;;;;;28.92;4.25;;;5.90;99.90;;;;;;5088660;28;20040;-78
2022/01/28 03:18:19;;;;;;;21.27;3.72;;;5.80;99.90;;;;;;5088479;28;20044;-78
2022/01/28 03:23:17;;;;;;;26.70;4.95;;;5.80;99.90;;;;;;5075670;28;20055;-78
2022/01/28 03:25:44;;;;;;;20.27;3.55;;;5.80;99.90;;;;;;5068192;28;20048;-78
2022/01/28 03:28:11;;;;;;;16.58;3.60;;;5.80;99.90;;;;;;5067629;28;20117;-78
2022/01/28 03:30:37;;;;;;;21.33;3.20;;;5.90;99.90;;;;;;5069416;28;20045;-78
2022/01/28 03:33:03;;;;;;;19.23;3.35;;;5.90;99.90;;;;;;5067696;28;20051;-78
2022/01/28 03:35:30;;;;;;;20.08;3.67;;;5.90;99.90;;;;;;5067915;28;20090;-78
2022/01/28 03:38:00;;;;;;;25.38;3.13;;;5.90;99.90;;;;;;5051218;28;20052;-78
2022/01/28 03:40:33;;;;;;;19.30;3.28;;;5.90;99.90;;;;;;5069026;28;20479;-78
2022/01/28 03:42:59;;;;;;;22.15;3.15;;;5.90;99.90;;;;;;5067303;28;20059;-77
2022/01/28 03:45:24;;;;;;;22.88;4.10;;;5.90;99.90;;;;;;5067569;28;20407;-78
2022/01/28 03:47:50;;;;;;;21.02;4.07;;;6.00;99.90;;;;;;5067977;28;20118;-78
2022/01/28 03:50:16;;;;;;;17.50;3.05;;;5.90;99.90;;;;;;5067540;28;20044;-78
2022/01/28 03:52:41;;;;;;;25.08;4.57;;;5.90;99.90;;;;;;5067696;28;20265;-78
2022/01/28 03:55:08;;;;;;;23.98;3.65;;;5.90;99.90;;;;;;5067221;28;20052;-78
2022/01/28 03:57:33;;;;;;;28.48;6.10;;;5.90;99.90;;;;;;5067459;28;20049;-78
2022/01/28 03:59:59;;;;;;;23.33;4.43;;;5.90;99.90;;;;;;5050932;28;20093;-78
2022/01/28 04:02:28;;;;;;;31.92;5.43;;;5.90;99.90;;;;;;5067739;28;20135;-78
2022/01/28 04:12:51;;;;;;;;;;;5.80;99.90;;;;;;5067945;28;20105;-78
2022/01/28 04:18:09;;;;;;;26.90;5.13;;;5.90;99.90;;;;;;5059870;28;20090;-78
2022/01/28 04:20:35;;;;;;;20.92;3.95;;;5.90;99.90;;;;;;5050428;28;20068;-77
2022/01/28 04:23:01;;;;;;;35.03;5.40;;;5.90;99.90;;;;;;5061235;28;20036;-78
2022/01/28 04:25:26;;;;;;;31.58;4.97;;;5.90;99.90;;;;;;5088757;28;20051;-78
2022/01/28 04:27:52;;;;;;;24.38;4.72;;;5.90;99.90;;;;;;5089341;28;20058;-78
2022/01/28 04:30:17;;;;;;;29.48;5.35;;;5.90;99.90;;;;;;5089410;28;20048;-78
2022/01/28 04:32:46;;;;;;;33.92;5.32;;;5.90;99.90;;;;;;5071752;28;20040;-78
2022/01/28 04:35:12;;;;;;;33.60;5.07;;;5.90;99.90;;;;;;5087313;28;20083;-78
2022/01/28 04:42:53;;;;;;;26.40;4.93;;;5.90;99.90;;;;;;5087630;28;20083;-78
2022/01/28 04:48:31;;;;;;;29.85;5.32;;;5.80;99.90;;;;;;5066054;28;20044;-78
2022/01/28 04:53:43;;;;;;;;;;;5.70;99.90;;;;;;5088967;28;20054;-78
2022/01/28 05:11:53;;;;;;;37.20;7.05;;;5.60;99.90;;;;;;5086242;28;20301;-78
2022/01/28 05:27:13;;;;;;;22.52;4.60;;;5.70;99.90;;;;;;5069659;28;20056;-78
2022/01/28 05:29:39;;;;;;;22.95;3.75;;;5.80;99.90;;;;;;5071524;28;20136;-78
2022/01/28 05:32:06;;;;;;;22.08;4.07;;;5.80;99.90;;;;;;5071039;28;20048;-78
2022/01/28 05:34:32;;;;;;;24.23;4.15;;;5.80;99.90;;;;;;5072386;28;20044;-78
2022/01/28 05:36:57;;;;;;;27.10;3.67;;;5.80;99.90;;;;;;5071226;28;20063;-78
2022/01/28 05:39:23;;;;;;;27.42;4.85;;;5.80;99.90;;;;;;5054602;28;20101;-78
2022/01/28 05:41:49;;;;;;;25.27;4.78;;;5.80;99.90;;;;;;5071272;28;20067;-78
2022/01/28 05:44:15;;;;;;;23.60;4.43;;;5.90;99.90;;;;;;5054512;28;20083;-78
2022/01/28 05:46:41;;;;;;;23.25;5.15;;;5.80;99.90;;;;;;5070677;28;20044;-78
2022/01/28 05:49:06;;;;;;;30.23;4.22;;;5.90;99.90;;;;;;5070922;28;20052;-78
2022/01/28 05:51:32;;;;;;;23.05;4.40;;;5.80;99.90;;;;;;5070501;28;20052;-78
2022/01/28 05:53:58;;;;;;;27.58;4.65;;;5.80;99.90;;;;;;5071173;28;20124;-78
2022/01/28 05:56:27;;;;;;;26.80;4.93;;;5.80;99.90;;;;;;5070780;28;20048;-78
2022/01/28 05:58:54;;;;;;;30.50;5.28;;;5.70;99.90;;;;;;5070713;28;20127;-78
2022/01/28 06:01:20;;;;;;;30.17;5.32;;;5.70;99.90;;;;;;5071314;28;20115;-78
2022/01/28 06:03:47;;;;;;;32.90;5.68;;;5.70;99.90;;;;;;5071183;28;20485;-78
2022/01/28 06:06:19;;;;;;;23.27;5.75;;;5.70;99.90;;;;;;5069618;28;20044;-78
2022/01/28 06:08:55;;;;;;;34.22;5.38;;;5.70;99.90;;;;;;5071051;28;20109;-78
2022/01/28 06:11:22;;;;;;;35.90;6.30;;;5.70;99.90;;;;;;5071978;28;20048;-78
2022/01/28 06:13:48;;;;;;;29.88;4.75;;;5.70;99.90;;;;;;5054090;28;20044;-78
2022/01/28 06:16:15;;;;;;;46.35;5.75;;;5.70;99.90;;;;;;5071667;28;20073;-78
2022/01/28 06:18:41;;;;;;;38.17;5.90;;;5.70;99.90;;;;;;5053517;28;20045;-78
2022/01/28 06:21:07;;;;;;;28.63;5.28;;;5.60;99.90;;;;;;5071637;28;20033;-78
2022/01/28 06:23:33;;;;;;;25.45;4.57;;;5.70;99.90;;;;;;5085636;28;20050;-78
2022/01/28 06:25:59;;;;;;;27.52;4.85;;;5.70;99.90;;;;;;5090638;28;20452;-78
2022/01/28 06:28:24;;;;;;;28.38;5.68;;;5.70;99.90;;;;;;5090139;28;20059;-78
2022/01/28 06:30:51;;;;;;;30.05;4.40;;;5.70;99.90;;;;;;5090632;28;20135;-77
2022/01/28 06:33:17;;;;;;;25.15;4.30;;;5.70;99.90;;;;;;5090261;28;20135;-78
2022/01/28 06:35:44;;;;;;;24.10;4.15;;;5.70;99.90;;;;;;5073447;28;20066;-78
2022/01/28 06:38:11;;;;;;;21.27;4.75;;;5.70;99.90;;;;;;5089723;28;20131;-78
2022/01/28 06:40:37;;;;;;;18.65;3.13;;;5.70;99.90;;;;;;5091696;28;20117;-78
2022/01/28 06:43:03;;;;;;;24.48;4.10;;;5.70;99.90;;;;;;5090022;28;20044;-78
2022/01/28 06:45:29;;;;;;;;;;;5.60;99.90;;;;;;5090900;28;20070;-78
2022/01/28 06:47:54;;;;;;;;;;;5.60;99.90;;;;;;5091072;28;20263;-77
2022/01/28 06:50:20;;;;;;;;;;;5.60;99.90;;;;;;5073834;28;19920;-78
2022/01/28 06:52:45;;;;;;;;;;;5.60;99.90;;;;;;5091871;28;19927;-78
2022/01/28 06:55:12;;;;;;;;;;;5.60;99.90;;;;;;5091293;28;19924;-78
2022/01/28 06:57:38;;;;;;;25.77;4.18;;;5.60;99.90;;;;;;5089559;28;20298;-78
2022/01/28 07:00:06;;;;;;;26.83;4.07;;;5.60;99.90;;;;;;5091510;28;20135;-78
2022/01/28 07:02:32;;;;;;;21.05;4.35;;;5.60;99.90;;;;;;5089839;28;20040;-78
2022/01/28 07:04:58;;;;;;;26.52;4.43;;;5.60;99.90;;;;;;5089321;28;20066;-78
2022/01/28 07:07:25;;;;;;;18.73;3.03;;;5.50;99.90;;;;;;5089606;28;20079;-78
2022/01/28 07:09:51;;;;;;;24.98;4.53;;;5.50;99.90;;;;;;5090714;28;20510;-78
2022/01/28 07:12:17;;;;;;;21.98;3.63;;;5.50;99.90;;;;;;5089166;28;20098;-78
2022/01/28 07:14:43;;;;;;;24.48;4.05;;;5.50;99.90;;;;;;5089346;28;20036;-78
2022/01/28 07:17:09;;;;;;;26.30;4.35;;;5.50;99.90;;;;;;5090106;28;20184;-78
2022/01/28 07:19:34;;;;;;;29.75;4.30;;;5.50;99.90;;;;;;5090707;28;20525;-78
2022/01/28 07:22:00;;;;;;;22.70;3.75;;;5.50;99.90;;;;;;5086716;28;20043;-78
2022/01/28 07:24:26;;;;;;;23.70;4.40;;;5.50;99.90;;;;;;5068898;28;20048;-78
2022/01/28 07:26:52;;;;;;;26.10;3.63;;;5.50;99.90;;;;;;5068351;28;20066;-78
2022/01/28 07:29:18;;;;;;;23.95;3.58;;;5.50;99.90;;;;;;5068989;28;20044;-78
2022/01/28 07:31:44;;;;;;;28.23;4.38;;;5.50;99.90;;;;;;5069798;28;20044;-77
2022/01/28 07:34:09;;;;;;;23.17;3.63;;;5.50;99.90;;;;;;5068937;28;20051;-78
2022/01/28 07:36:36;;;;;;;30.60;4.38;;;5.50;99.90;;;;;;5068510;28;20952;-78
2022/01/28 07:39:05;;;;;;;25.85;4.57;;;5.50;99.90;;;;;;5068632;28;20093;-78
2022/01/28 07:41:31;;;;;;;29.52;6.05;;;5.50;99.90;;;;;;5052127;28;20049;-78
2022/01/28 07:43:57;;;;;;;24.27;4.85;;;5.50;99.90;;;;;;5070197;28;20054;-77
2022/01/28 07:46:22;;;;;;;27.55;4.57;;;5.50;99.90;;;;;;5068901;28;20040;-78
2022/01/28 07:48:48;;;;;;;24.30;4.75;;;5.50;99.90;;;;;;5069413;28;20032;-78
2022/01/28 07:51:14;;;;;;;18.35;3.80;;;5.50;99.90;;;;;;5068115;28;20036;-78
2022/01/28 07:53:39;;;;;;;31.40;5.63;;;5.40;99.90;;;;;;5069805;28;20458;-78
2022/01/28 07:56:05;;;;;;;28.52;4.25;;;5.40;99.90;;;;;;5068741;28;20059;-78
2022/01/28 07:58:31;;;;;;;33.20;5.22;;;5.40;99.90;;;;;;5067620;28;20123;-78
2022/01/28 08:00:56;;;;;;;30.85;5.35;;;5.40;99.90;;;;;;5051201;28;20040;-78
2022/01/28 08:03:22;;;;;;;30.23;4.40;;;5.40;99.90;;;;;;5067199;28;20076;-78
2022/01/28 08:05:48;;;;;;;30.85;5.07;;;5.40;99.90;;;;;;5067706;28;20051;-78
2022/01/28 08:08:18;;;;;;;30.40;5.53;;;5.40;99.90;;;;;;5067579;28;20128;-78
2022/01/28 08:10:43;;;;;;;31.58;5.47;;;5.40;99.90;;;;;;5067785;28;20449;-78
2022/01/28 08:13:09;;;;;;;31.33;5.30;;;5.40;99.90;;;;;;5067617;28;20036;-78
2022/01/28 08:15:35;;;;;;;38.70;5.13;;;5.40;99.90;;;;;;5069078;28;20033;-78
2022/01/28 08:18:01;;;;;;;27.48;4.20;;;5.30;99.90;;;;;;5069324;28;20048;-78
2022/01/28 08:20:27;;;;;;;22.00;4.57;;;5.40;99.90;;;;;;5069836;28;20044;-78
2022/01/28 08:22:56;;;;;;;25.73;4.22;;;5.40;99.90;;;;;;5060876;28;20126;-78
2022/01/28 08:25:23;;;;;;;29.52;3.80;;;5.40;99.90;;;;;;5087907;28;20103;-78
2022/01/28 08:27:51;;;;;;;29.77;5.00;;;5.40;99.90;;;;;;5087832;28;20060;-78
2022/01/28 08:30:22;;;;;;;27.17;5.38;;;5.50;99.90;;;;;;5088585;28;20044;-78
2022/01/28 08:32:48;;;;;;;25.60;4.38;;;5.50;99.90;;;;;;5088438;28;20098;-78
2022/01/28 08:35:16;;;;;;;28.65;4.70;;;5.50;99.90;;;;;;5089673;28;20123;-78
2022/01/28 08:37:42;;;;;;;25.88;3.58;;;5.60;99.90;;;;;;5089504;28;20108;-78
2022/01/28 08:40:10;;;;;;;24.92;4.00;;;5.60;99.90;;;;;;5089655;28;20048;-78
2022/01/28 08:42:36;;;;;;;33.35;5.38;;;5.60;99.90;;;;;;5088229;28;20036;-78
2022/01/28 08:45:03;;;;;;;24.90;4.38;;;5.70;99.90;;;;;;5088244;28;20417;-78
2022/01/28 08:47:28;;;;;;;22.75;3.92;;;5.70;99.90;;;;;;5088423;28;20079;-78
2022/01/28 08:49:54;;;;;;;20.98;3.95;;;5.70;99.90;;;;;;5088769;28;20481;-78
2022/01/28 08:52:19;;;;;;;21.05;2.90;;;5.70;99.90;;;;;;5087123;28;20096;-78
2022/01/28 08:54:47;;;;;;;29.50;4.60;;;5.60;99.90;;;;;;5087280;28;20419;-78
2022/01/28 08:57:12;;;;;;;30.42;4.35;;;5.60;99.90;;;;;;5087141;28;20044;-78
2022/01/28 08:59:42;;;;;;;20.55;3.20;;;5.70;99.90;;;;;;5070182;28;20040;-78
2022/01/28 09:02:09;;;;;;;31.33;5.00;;;5.80;99.90;;;;;;5089256;28;20047;-78
2022/01/28 09:04:34;;;;;;;26.50;4.30;;;5.90;99.90;;;;;;5092852;28;20155;-78
2022/01/28 09:07:00;;;;;;;23.23;3.53;;;5.90;99.90;;;;;;5090849;28;20123;-78
2022/01/28 09:09:26;;;;;;;27.48;5.05;;;6.00;99.90;;;;;;5092150;28;20082;-78
2022/01/28 09:14:19;;;;;;;26.50;3.97;;;6.00;99.90;;;;;;5090845;28;20048;-78
2022/01/28 09:16:44;;;;;;;34.83;4.45;;;6.10;99.90;;;;;;5090684;28;20051;-78
2022/01/28 09:19:10;;;;;;;32.10;4.82;;;6.10;99.90;;;;;;5091920;28;20048;-78
2022/01/28 09:21:36;;;;;;;21.73;4.07;;;6.20;99.90;;;;;;5073994;28;20101;-78
2022/01/28 09:24:01;;;;;;;20.35;3.53;;;6.20;99.90;;;;;;5055244;28;20040;-78
2022/01/28 09:26:27;;;;;;;36.00;5.07;;;6.20;99.90;;;;;;5070911;28;20088;-78
2022/01/28 09:28:53;;;;;;;25.65;3.92;;;6.30;99.90;;;;;;5072624;28;20047;-78
2022/01/28 09:31:18;;;;;;;31.30;4.90;;;6.30;99.90;;;;;;5054809;28;20048;-78
2022/01/28 09:33:45;;;;;;;25.40;4.47;;;6.30;99.90;;;;;;5071431;28;20052;-78
2022/01/28 09:36:11;;;;;;;28.33;4.88;;;6.40;99.90;;;;;;5071314;28;20052;-78
2022/01/28 09:38:36;;;;;;;32.65;5.43;;;6.50;99.90;;;;;;5070971;28;20387;-78
2022/01/28 09:41:04;;;;;;;33.00;4.75;;;6.60;99.90;;;;;;5070818;28;20041;-79
2022/01/28 09:43:30;;;;;;;25.10;4.18;;;6.70;99.90;;;;;;5072379;28;20119;-78
2022/01/28 09:45:56;;;;;;;24.13;4.22;;;6.80;99.90;;;;;;5071134;28;20049;-78
2022/01/28 09:48:23;;;;;;;27.42;5.20;;;6.80;99.90;;;;;;5054550;28;20090;-78
2022/01/28 09:50:50;;;;;;;23.50;4.13;;;6.90;99.90;;;;;;5070331;28;20131;-78
2022/01/28 09:53:17;;;;;;;24.88;3.92;;;6.90;99.90;;;;;;5070697;28;20523;-78
2022/01/28 09:55:45;;;;;;;26.02;4.30;;;6.80;99.90;;;;;;5072093;28;20051;-78
2022/01/28 09:58:11;;;;;;;24.83;5.03;;;6.80;99.90;;;;;;5071013;28;20056;-78
2022/01/28 10:00:37;;;;;;;24.27;4.65;;;6.90;99.90;;;;;;5071778;28;20115;-78
2022/01/28 10:03:08;;;;;;;29.85;4.43;;;6.90;99.90;;;;;;5071937;28;20068;-78
2022/01/28 10:05:38;;;;;;;23.90;4.28;;;7.00;99.90;;;;;;5070239;28;20055;-78
2022/01/28 10:08:06;;;;;;;23.88;3.92;;;7.10;99.90;;;;;;5070155;28;20437;-78
2022/01/28 10:10:53;;;;;;;22.85;4.28;;;7.20;99.90;;;;;;5070985;28;20055;-78
2022/01/28 10:13:25;;;;;;;24.27;3.78;;;7.40;99.90;;;;;;5068584;28;20048;-78
2022/01/28 10:15:52;;;;;;;25.77;4.47;;;7.50;99.90;;;;;;5052964;28;20032;-78
2022/01/28 10:18:18;;;;;;;29.30;4.13;;;7.60;99.90;;;;;;5052842;28;20044;-78
2022/01/28 10:20:44;;;;;;;27.15;4.55;;;7.60;99.90;;;;;;5069138;28;20101;-78
2022/01/28 10:23:13;;;;;;;24.65;4.00;;;7.60;99.90;;;;;;5069222;28;20428;-78
2022/01/28 10:25:41;;;;;;;24.33;3.65;;;7.60;99.90;;;;;;5052461;28;20059;-78
2022/01/28 10:28:10;;;;;;;24.33;3.70;;;7.60;99.90;;;;;;5069332;28;20052;-78
2022/01/28 10:30:39;;;;;;;26.42;4.32;;;7.50;99.90;;;;;;5069503;28;20044;-78
2022/01/28 10:33:17;;;;;;;28.42;4.28;;;7.60;99.90;;;;;;5068771;28;20044;-78
2022/01/28 10:35:50;;;;;;;25.38;4.07;;;7.70;99.90;;;;;;5069326;28;20052;-78
2022/01/28 10:38:36;;;;;;;24.02;4.40;;;7.80;99.90;;;;;;5069237;28;20055;-78
2022/01/28 10:41:15;;;;;;;19.50;3.35;;;7.80;99.90;;;;;;5069110;28;20048;-78
2022/01/28 10:43:51;;;;;;;35.83;4.57;;;7.80;99.90;;;;;;5052233;28;20090;-78
2022/01/28 10:46:29;;;;;;;22.98;4.10;;;8.00;99.90;;;;;;5067210;28;20455;-78
2022/01/28 10:49:05;;;;;;;25.08;3.80;;;8.00;99.90;;;;;;5052170;28;20048;-78
2022/01/28 10:51:47;;;;;;;27.40;4.05;;;8.00;99.90;;;;;;5068805;28;20043;-78
2022/01/28 10:54:14;;;;;;;16.60;3.63;;;8.00;99.90;;;;;;5068432;28;20098;-77
2022/01/28 10:56:55;;;;;;;28.55;3.85;;;8.00;99.90;;;;;;5068567;28;20071;-77
2022/01/28 10:59:30;;;;;;;21.50;3.78;;;8.10;99.90;;;;;;5069974;28;20052;-77
2022/01/28 11:01:56;;;;;;;21.15;3.53;;;8.20;99.90;;;;;;5069869;28;20040;-77
2022/01/28 11:04:22;;;;;;;23.70;3.90;;;8.30;99.90;;;;;;5068828;28;20124;-77
2022/01/28 11:06:51;;;;;;;18.40;3.20;;;8.30;99.90;;;;;;5068506;28;20056;-77
2022/01/28 11:09:19;;;;;;;19.05;3.28;;;8.30;99.90;;;;;;5069144;28;20049;-78
2022/01/28 11:11:45;;;;;;;20.35;3.05;;;8.30;99.90;;;;;;5069818;28;20411;-77
2022/01/28 11:14:11;;;;;;;19.60;3.35;;;8.30;99.90;;;;;;5052222;28;20079;-77
2022/01/28 11:16:37;;;;;;;22.10;3.65;;;8.30;99.90;;;;;;5068084;28;20565;-77
2022/01/28 11:19:04;;;;;;;25.52;5.43;;;8.40;99.90;;;;;;5067755;28;20052;-77
2022/01/28 11:21:51;;;;;;;19.38;3.90;;;8.40;99.90;;;;;;5069532;28;20505;-77
2022/01/28 11:24:28;;;;;;;24.30;3.67;;;8.40;99.90;;;;;;5047803;28;20037;-77
2022/01/28 11:27:25;;;;;;;26.17;3.17;;;8.40;99.90;;;;;;5047874;28;20587;-78
2022/01/28 11:30:10;;;;;;;18.27;2.67;;;8.30;99.90;;;;;;5047738;28;20055;-77
2022/01/28 11:32:54;;;;;;;25.77;3.47;;;8.20;99.90;;;;;;5048775;28;20059;-77
2022/01/28 11:35:21;;;;;;;16.95;3.00;;;8.20;99.90;;;;;;5048047;28;20048;-77
2022/01/28 11:37:46;;;;;;;;;;;8.50;99.90;;;;;;5050874;28;20084;-77
2022/01/28 11:40:14;;;;;;;;;;;8.90;99.90;;;;;;5049348;28;19997;-77
2022/01/28 11:42:40;;;;;;;;;;;9.20;99.90;;;;;;5032295;28;19975;-77
2022/01/28 11:45:09;;;;;;;;;;;9.40;99.90;;;;;;5032780;28;19921;-77
2022/01/28 11:47:40;;;;;;;21.38;3.00;;;9.60;99.90;;;;;;5048686;28;20007;-76
2022/01/28 11:50:13;;;;;;;18.75;3.65;;;10.00;99.90;;;;;;5030926;28;20460;-77
2022/01/28 11:52:46;;;;;;;20.95;3.80;;;10.70;99.90;;;;;;5047497;28;20424;-78
2022/01/28 11:55:14;;;;;;;21.80;4.35;;;11.00;99.90;;;;;;5047101;28;20501;-78
2022/01/28 11:57:57;;;;;;;22.70;4.30;;;11.10;99.90;;;;;;5047038;28;20516;-78
2022/01/28 12:00:24;;;;;;;24.30;4.13;;;10.90;97.70;;;;;;5030581;28;20425;-78
2022/01/28 12:02:52;;;;;;;22.02;4.20;;;10.60;98.50;;;;;;5047659;28;20489;-78
2022/01/28 12:05:25;;;;;;;23.25;4.38;;;10.10;98.40;;;;;;5029786;28;20420;-77
2022/01/28 12:07:51;;;;;;;22.60;4.38;;;9.70;99.90;;;;;;5045869;28;20402;-78
2022/01/28 12:10:17;;;;;;;22.55;3.92;;;9.60;99.90;;;;;;5046060;28;20799;-77
2022/01/28 12:12:55;;;;;;;21.23;4.35;;;9.60;99.90;;;;;;5046950;28;20412;-78
2022/01/28 12:15:23;;;;;;;22.63;4.20;;;9.50;99.90;;;;;;5046024;28;20421;-78
2022/01/28 12:17:51;;;;;;;21.85;4.28;;;9.30;99.90;;;;;;5029406;28;20850;-78
2022/01/28 12:20:18;;;;;;;21.20;4.30;;;9.10;99.90;;;;;;5047272;28;20409;-78
2022/01/28 12:22:59;;;;;;;24.42;4.82;;;8.90;99.90;;;;;;5062790;28;20417;-77
2022/01/28 12:25:43;;;;;;;24.08;4.28;;;8.80;99.90;;;;;;5087564;28;20417;-78
2022/01/28 12:28:24;;;;;;;24.55;4.78;;;8.70;99.90;;;;;;5086089;28;20441;-78
2022/01/28 12:31:00;;;;;;;24.02;4.68;;;8.70;99.90;;;;;;5085475;28;20414;-78
2022/01/28 12:33:30;;;;;;;24.83;4.63;;;8.70;99.90;;;;;;5086925;28;20749;-77
2022/01/28 12:35:58;;;;;;;24.33;4.07;;;8.60;99.90;;;;;;5085928;28;20418;-78
2022/01/28 12:38:28;;;;;;;24.08;4.35;;;8.50;99.90;;;;;;5087324;28;20432;-78
2022/01/28 12:40:56;;;;;;;25.77;4.40;;;8.70;99.90;;;;;;5086092;28;20438;-78
2022/01/28 12:43:24;;;;;;;22.83;4.15;;;8.90;99.90;;;;;;5085639;28;20482;-78
2022/01/28 12:45:58;;;;;;;22.23;3.72;;;8.90;99.90;;;;;;5087003;28;20402;-78
2022/01/28 12:48:23;;;;;;;22.80;4.00;;;9.00;99.90;;;;;;5085748;28;20410;-77
2022/01/28 12:50:50;;;;;;;25.00;4.40;;;9.00;99.90;;;;;;5086184;28;20408;-77
2022/01/28 12:53:39;;;;;;;23.23;4.22;;;9.00;99.90;;;;;;5085555;28;20406;-77
2022/01/28 12:56:06;;;;;;;21.48;4.25;;;9.00;99.90;;;;;;5085423;28;20406;-78
2022/01/28 12:58:35;;;;;;;22.65;4.57;;;9.20;99.90;;;;;;5085483;28;20483;-77
2022/01/28 13:01:10;;;;;;;23.73;3.90;;;9.20;99.90;;;;;;5086043;28;20437;-78
2022/01/28 13:03:44;;;;;;;28.00;5.47;;;9.10;99.90;;;;;;5086490;28;20421;-77
2022/01/28 13:09:19;;;;;;;23.38;3.72;;;8.80;99.90;;;;;;5086555;28;20424;-77
2022/01/28 13:11:49;;;;;;;;;;;8.80;99.90;;;;;;5088793;28;20418;-78
2022/01/28 13:14:27;;;;;;;22.13;3.75;;;8.60;99.90;;;;;;5089050;28;19982;-78
2022/01/28 13:16:53;;;;;;;20.10;3.28;;;8.50;99.90;;;;;;5087703;28;20044;-78
2022/01/28 13:19:20;;;;;;;19.52;3.88;;;8.50;99.90;;;;;;5088086;28;20044;-78
2022/01/28 13:21:48;;;;;;;17.10;3.33;;;8.60;99.90;;;;;;5088530;28;20508;-78
2022/01/28 13:24:22;;;;;;;21.85;3.50;;;8.70;99.90;;;;;;5067459;28;20048;-78
2022/01/28 13:26:58;;;;;;;;;;;8.80;99.90;;;;;;5069341;28;20465;-78
2022/01/28 13:29:53;;;;;;;16.95;2.38;;;8.60;99.90;;;;;;5067224;28;19975;-78
2022/01/28 13:32:29;;;;;;;22.40;3.30;;;8.40;99.90;;;;;;5058409;28;20056;-77
2022/01/28 13:35:00;;;;;;;23.58;4.18;;;8.20;99.90;;;;;;5067008;28;20049;-77
2022/01/28 13:37:39;;;;;;;16.58;3.38;;;8.30;99.90;;;;;;5050469;28;20079;-78
2022/01/28 13:40:29;;;;;;;19.38;3.40;;;8.40;99.90;;;;;;5050979;28;20076;-77
2022/01/28 13:43:06;;;;;;;23.02;2.90;;;8.50;99.90;;;;;;5067164;28;20048;-77
2022/01/28 13:45:41;;;;;;;20.27;3.22;;;8.60;99.90;;;;;;5050557;28;20099;-78
2022/01/28 13:48:15;;;;;;;23.48;4.10;;;8.90;99.90;;;;;;5068008;28;20422;-78
2022/01/28 13:50:43;;;;;;;21.88;4.03;;;9.10;99.90;;;;;;5070081;28;20400;-78
2022/01/28 13:56:07;;;;;;;23.98;4.07;;;9.00;99.90;;;;;;5068907;28;20419;-77
2022/01/28 13:58:48;;;;;;;16.88;3.20;;;8.90;99.90;;;;;;5069451;28;20442;-77
2022/01/28 14:01:15;;;;;;;25.13;3.85;;;8.70;99.90;;;;;;5070701;28;20415;-77
2022/01/28 14:03:50;;;;;;;20.92;3.88;;;8.50;99.90;;;;;;5070939;28;20482;-78
2022/01/28 14:06:18;;;;;;;23.07;4.10;;;8.40;99.90;;;;;;5069108;28;20925;-77
2022/01/28 14:08:53;;;;;;;20.20;4.10;;;8.30;99.90;;;;;;5069481;28;20909;-77
2022/01/28 14:11:22;;;;;;;20.02;3.60;;;8.20;99.90;;;;;;5068823;28;20765;-77
2022/01/28 14:14:23;;;;;;;21.20;3.97;;;8.00;99.90;;;;;;5069705;28;20541;-77
2022/01/28 14:16:59;;;;;;;20.45;3.78;;;7.90;99.90;;;;;;5069415;28;21141;-77
2022/01/28 14:19:29;;;;;;;21.23;3.90;;;7.90;99.90;;;;;;5069382;28;20462;-78
2022/01/28 14:21:56;;;;;;;21.35;3.50;;;7.80;99.90;;;;;;5053329;28;20454;-78
2022/01/28 14:24:33;;;;;;;18.85;3.85;;;7.70;99.90;;;;;;5089740;28;20401;-78
2022/01/28 14:31:55;;;;;;;19.88;4.03;;;8.00;99.90;;;;;;5088999;28;20406;-78
2022/01/28 14:34:22;;;;;;;19.27;4.03;;;8.00;99.90;;;;;;5089705;28;20478;-78
2022/01/28 14:36:49;;;;;;;23.15;4.18;;;8.10;99.90;;;;;;5090458;28;20414;-78
2022/01/28 14:39:16;;;;;;;21.92;3.90;;;8.30;99.90;;;;;;5071830;28;20406;-78
2022/01/28 14:41:43;;;;;;;23.15;4.35;;;8.40;99.90;;;;;;5089169;28;20402;-78
2022/01/28 14:44:10;;;;;;;23.88;3.85;;;8.50;99.90;;;;;;5090548;28;20429;-78
2022/01/28 14:46:36;;;;;;;18.20;3.67;;;8.40;99.90;;;;;;5089843;28;20799;-78
2022/01/28 14:49:04;;;;;;;21.77;3.60;;;8.30;99.90;;;;;;5088514;28;20413;-78